Miami International Airport
KMIA : now visible

Airfield :











YOU CAN JOIN US ON...

 
LOGIN :

Register | Disclaimer

   EN    FR    IT 

 









Legend :    VFR   Marginal VFR   IFR   Intensive IFR   Very Intensive IFR
Visi :
Ceiling :
>= 8 km
>= 3000ft
5 to 8 km
1000 to 3000 ft
1500m to 5 km
500 to 1000 ft
800 to 1500m
200 to 500 ft
< 800m
< 200 ft
Symbols :   Thunderstorms  Fog  Heavy snow  Heavy precipitations  Wind > 20 kt






- Airport Elevation : 8 ft
- IATA code : MIA


KMIA - Miami International

CURRENT METAR :
  • 300853Z 32008KT 10SM FEW040 21/17 A2977 RMK AO2 SLP080 T02110172 53002

EXPIRED METARs :
  • 300753Z 33006KT 10SM FEW018 FEW040 21/18 A2976 RMK AO2 SLP077 T02110178
  • 300653Z 32006KT 10SM FEW018 FEW040 22/18 A2975 RMK AO2 SLP075 T02170178

TAF KMIA
Valid from the 30 at 09:00 until the 01 at 12:00 UTC


300840Z 3009/0112 32008KT P6SM SKC
FM301400 32008KT P6SM FEW030 SCT050
FM010100 VRB04KT P6SM FEW030
KZMA FIR / North America



MET'MAP, your aeronautical weather chart ! - Copyright ORBIFLY December 2007 - Disclaimer

ORBIFLY MET'MAP TEAM :

Programming & Development : Alexandra Zaïnal
Original concept : Baudouin d'Aumeries
Technical & hardware support : Manuel Goepfert
Assistance : Marc-Olivier Méhu




SOURCES & CREDITS :

   NOAA       Earth
Advisory